Makiyivka, Ukraine
Current Conditions -  °F | °C
As of 6:00 AM on Saturday 20 Dec 2014 (Local Time) from URRR Reporting Station
Haze Haze  
Wind Chill: 24°   Ceiling: 600
Heat Index: 34°   Visibility: 2.8mi
Dew Point: 32°   Wind: 13mph
Humidity: 93%   Direction: 240°WSW
Pressure: 30.06"   Gusts: 20mph
Location:  48.03°N, 37.97°E
Report Text: URRR 200300Z 24006G09MPS 4500 BR BKN006 01/00 Q1018 22220060NOSIG RMK QBB190 MAST OBSC
Loading
Personal Weather Stations






























Interactive Weather Map New forecast layout! Learn more

10-Day Weather Forecast

Advertisements
Track Severe Weather on mobile